createdAt,value
2022-08-07T00:02:35.609Z,4.45
2022-08-07T00:04:09.706Z,6.53
2022-08-07T00:06:45.610Z,11.18
2022-08-07T00:09:29.186Z,4.35
2022-08-07T00:12:04.487Z,2.95
2022-08-07T00:14:32.582Z,2.90
2022-08-07T00:17:02.923Z,3.53
2022-08-07T00:20:01.624Z,2.38
2022-08-07T00:22:24.705Z,3.80
2022-08-07T00:25:15.845Z,4.47
2022-08-07T00:27:53.670Z,3.30
2022-08-07T00:30:28.250Z,4.72
2022-08-07T00:33:02.296Z,6.60
2022-08-07T00:35:30.970Z,4.40
2022-08-07T00:38:03.600Z,3.42
2022-08-07T00:40:36.180Z,5.05
2022-08-07T00:43:09.939Z,2.03
2022-08-07T00:45:40.874Z,3.80
2022-08-07T00:48:11.205Z,3.13
2022-08-07T00:50:50.847Z,2.75
2022-08-07T00:53:21.182Z,7.43
2022-08-07T00:56:00.562Z,5.28
2022-08-07T00:58:32.706Z,4.40
2022-08-07T01:01:00.961Z,4.97
2022-08-07T01:03:56.981Z,3.22
2022-08-07T01:06:19.171Z,2.47
2022-08-07T01:08:53.095Z,3.10
2022-08-07T01:12:09.388Z,3.30
2022-08-07T01:14:10.690Z,3.65
2022-08-07T01:16:42.973Z,3.97
2022-08-07T01:19:19.264Z,6.18
2022-08-07T01:21:53.481Z,4.65
2022-08-07T01:24:30.553Z,6.07
2022-08-07T01:27:01.556Z,2.38
2022-08-07T01:29:33.888Z,3.75
2022-08-07T01:32:05.799Z,4.13
2022-08-07T01:34:47.167Z,5.72
2022-08-07T01:37:18.988Z,5.75
2022-08-07T01:39:50.222Z,3.30
2022-08-07T01:42:37.994Z,5.20
2022-08-07T01:45:18.312Z,2.20
2022-08-07T01:48:18.339Z,4.05
2022-08-07T01:50:47.517Z,4.25
2022-08-07T01:54:12.326Z,3.88
2022-08-07T01:56:17.637Z,3.47
2022-08-07T01:58:58.577Z,4.20
2022-08-07T02:02:01.607Z,5.07
2022-08-07T02:04:39.961Z,4.07
2022-08-07T02:07:35.740Z,4.28
2022-08-07T02:13:19.312Z,4.00
2022-08-07T02:16:11.858Z,4.03
2022-08-07T02:18:46.787Z,3.20
2022-08-07T02:21:19.312Z,4.75
2022-08-07T02:23:49.361Z,6.10
2022-08-07T02:26:33.082Z,3.22
2022-08-07T02:29:13.720Z,4.03
2022-08-07T02:31:44.003Z,6.40
2022-08-07T02:34:18.088Z,6.45
2022-08-07T02:36:52.727Z,4.90
2022-08-07T02:39:43.112Z,6.07
2022-08-07T02:42:16.368Z,4.93
2022-08-07T02:44:52.473Z,4.35
2022-08-07T02:47:23.902Z,4.45
2022-08-07T02:50:03.958Z,4.28
2022-08-07T02:52:54.834Z,2.95
2022-08-07T02:56:03.681Z,5.43
2022-08-07T02:58:27.920Z,6.65
2022-08-07T03:01:04.173Z,4.60
2022-08-07T03:03:49.503Z,4.15
2022-08-07T03:06:25.861Z,3.63
2022-08-07T03:09:11.349Z,6.28
2022-08-07T03:11:52.390Z,3.67
2022-08-07T03:14:31.007Z,5.82
2022-08-07T03:16:59.731Z,4.97
2022-08-07T03:19:36.927Z,3.30
2022-08-07T03:22:08.471Z,5.63
2022-08-07T03:24:47.929Z,4.28
2022-08-07T03:27:30.441Z,3.10
2022-08-07T03:30:01.182Z,3.47
2022-08-07T03:32:39.985Z,2.45
2022-08-07T03:35:26.323Z,3.28
2022-08-07T03:38:02.055Z,3.03
2022-08-07T03:40:36.492Z,5.63
2022-08-07T03:43:14.628Z,5.63
2022-08-07T03:45:51.829Z,3.40
2022-08-07T03:48:26.119Z,2.63
2022-08-07T03:50:59.511Z,3.03
2022-08-07T03:56:33.060Z,2.30
2022-08-07T03:59:13.113Z,2.83
2022-08-07T04:01:48.446Z,4.80
2022-08-07T04:04:23.827Z,3.90
2022-08-07T04:06:58.330Z,4.57
2022-08-07T04:09:45.117Z,3.30
2022-08-07T04:12:27.405Z,5.45
2022-08-07T04:15:00.291Z,4.35
2022-08-07T04:18:58.500Z,3.80
2022-08-07T04:20:22.472Z,2.67
2022-08-07T04:23:01.953Z,3.72
2022-08-07T04:25:40.974Z,2.85
2022-08-07T04:28:13.283Z,3.10
2022-08-07T04:30:55.584Z,5.88
2022-08-07T04:33:35.281Z,2.95
2022-08-07T04:36:10.153Z,3.80
2022-08-07T04:38:40.850Z,3.10
2022-08-07T04:41:10.051Z,4.82
2022-08-07T04:44:14.759Z,3.53
2022-08-07T04:46:59.639Z,3.85
2022-08-07T04:50:04.571Z,3.83
2022-08-07T04:54:01.410Z,4.10
2022-08-07T04:58:12.789Z,4.82
2022-08-07T05:00:11.956Z,4.68
2022-08-07T05:04:00.086Z,3.75
2022-08-07T05:06:42.964Z,4.22
2022-08-07T05:09:59.557Z,3.05
2022-08-07T05:12:46.261Z,3.78
2022-08-07T05:15:31.362Z,4.45
2022-08-07T05:18:23.728Z,4.68
2022-08-07T05:20:56.472Z,4.68
2022-08-07T05:23:57.932Z,7.40
2022-08-07T05:26:29.876Z,5.88
2022-08-07T05:29:10.254Z,4.53
2022-08-07T05:31:51.119Z,5.70
2022-08-07T05:34:27.678Z,6.93
2022-08-07T05:36:57.867Z,3.85
2022-08-07T05:40:13.485Z,3.83
2022-08-07T05:42:33.894Z,2.90
2022-08-07T05:45:19.845Z,5.90
2022-08-07T05:48:02.555Z,3.13
2022-08-07T05:50:39.561Z,5.93
2022-08-07T05:54:13.621Z,4.13
2022-08-07T05:56:06.091Z,5.53
2022-08-07T05:58:49.231Z,3.75
2022-08-07T06:01:26.254Z,3.40
2022-08-07T06:04:01.390Z,4.88
2022-08-07T06:06:37.240Z,6.53
2022-08-07T06:09:09.258Z,5.97
2022-08-07T06:11:43.936Z,4.53
2022-08-07T06:14:21.336Z,11.18
2022-08-07T06:17:01.232Z,3.90
2022-08-07T06:19:52.130Z,4.03
2022-08-07T06:22:38.328Z,7.35
2022-08-07T06:25:25.899Z,5.10
2022-08-07T06:28:07.773Z,3.47
2022-08-07T06:30:42.701Z,5.60
2022-08-07T06:33:19.679Z,4.95
2022-08-07T06:36:06.829Z,7.93
2022-08-07T06:38:59.585Z,8.13
2022-08-07T06:42:01.586Z,5.85
2022-08-07T06:44:53.534Z,6.97
2022-08-07T06:47:23.097Z,5.45
2022-08-07T06:49:58.865Z,6.32
2022-08-07T06:52:39.547Z,4.05
2022-08-07T06:55:34.391Z,3.55
2022-08-07T06:58:16.575Z,6.55
2022-08-07T07:00:55.885Z,20.30
2022-08-07T07:03:39.573Z,6.35
2022-08-07T07:06:14.013Z,5.38
2022-08-07T07:08:54.412Z,7.20
2022-08-07T07:12:08.478Z,4.07
2022-08-07T07:14:14.108Z,5.72
2022-08-07T07:16:51.016Z,4.78
2022-08-07T07:19:55.479Z,3.80
2022-08-07T07:22:36.007Z,4.78
2022-08-07T07:26:30.773Z,9.68
2022-08-07T07:28:42.065Z,5.07
2022-08-07T07:31:17.370Z,4.55
2022-08-07T07:33:57.151Z,6.28
2022-08-07T07:36:32.649Z,5.65
2022-08-07T07:39:04.900Z,6.80
2022-08-07T07:42:02.075Z,4.78
2022-08-07T07:44:26.787Z,9.45
2022-08-07T07:47:02.242Z,5.50
2022-08-07T07:52:37.829Z,6.25
2022-08-07T07:55:11.442Z,5.75
2022-08-07T07:57:51.518Z,6.03
2022-08-07T08:00:29.583Z,3.60
2022-08-07T08:03:16.805Z,5.18
2022-08-07T08:06:00.316Z,6.35
2022-08-07T08:08:36.839Z,5.60
2022-08-07T08:11:16.029Z,5.38
2022-08-07T08:13:54.906Z,7.00
2022-08-07T08:16:35.433Z,6.30
2022-08-07T08:19:18.048Z,5.00
2022-08-07T08:22:18.141Z,5.00
2022-08-07T08:25:42.513Z,5.15
2022-08-07T08:28:37.670Z,5.05
2022-08-07T08:31:15.986Z,6.25
2022-08-07T08:33:55.405Z,6.82
2022-08-07T08:36:30.586Z,4.65
2022-08-07T08:39:02.630Z,5.75
2022-08-07T08:41:57.733Z,6.18
2022-08-07T08:44:51.560Z,3.80
2022-08-07T08:47:31.613Z,5.15
2022-08-07T08:50:28.624Z,5.75
2022-08-07T08:53:29.507Z,5.05
2022-08-07T08:56:04.590Z,5.53
2022-08-07T08:59:06.432Z,5.70
2022-08-07T09:02:16.077Z,5.25
2022-08-07T09:05:26.432Z,6.00
2022-08-07T09:08:32.856Z,6.95
2022-08-07T09:11:43.689Z,8.15
2022-08-07T09:14:50.622Z,6.47
2022-08-07T09:17:59.337Z,6.05
2022-08-07T09:21:06.358Z,5.25
2022-08-07T09:24:31.055Z,6.78
2022-08-07T09:27:59.812Z,6.20
2022-08-07T09:30:59.034Z,5.22
2022-08-07T09:34:21.558Z,7.75
2022-08-07T09:36:58.296Z,7.28
2022-08-07T09:39:58.001Z,8.32
2022-08-07T09:43:09.661Z,8.85
2022-08-07T09:47:55.747Z,8.60
2022-08-07T09:50:03.746Z,6.60
2022-08-07T09:52:51.834Z,8.27
2022-08-07T09:56:02.398Z,5.93
2022-08-07T09:58:32.193Z,5.55
2022-08-07T10:01:50.323Z,7.20
2022-08-07T10:04:52.921Z,8.60
2022-08-07T10:08:03.075Z,7.25
2022-08-07T10:11:16.772Z,8.70
2022-08-07T10:14:03.885Z,7.30
2022-08-07T10:17:14.133Z,6.97
2022-08-07T10:20:00.175Z,8.27
2022-08-07T10:23:09.653Z,6.18
2022-08-07T10:26:31.066Z,7.30
2022-08-07T10:29:35.342Z,6.85
2022-08-07T10:32:52.793Z,8.27
2022-08-07T10:35:55.506Z,7.57
2022-08-07T10:38:35.875Z,6.60
2022-08-07T10:41:46.575Z,11.00
2022-08-07T10:45:11.907Z,7.03
2022-08-07T10:47:52.665Z,5.53
2022-08-07T10:50:44.892Z,6.57
2022-08-07T10:53:51.030Z,6.57
2022-08-07T10:56:37.095Z,7.40
2022-08-07T10:59:38.779Z,7.07
2022-08-07T11:02:37.568Z,8.27
2022-08-07T11:05:44.840Z,7.70
2022-08-07T11:08:30.266Z,6.50
2022-08-07T11:11:10.516Z,6.30
2022-08-07T11:14:45.364Z,9.02
2022-08-07T11:17:43.440Z,6.38
2022-08-07T11:20:24.658Z,5.90
2022-08-07T11:23:38.635Z,8.43
2022-08-07T11:26:27.003Z,7.13
2022-08-07T11:29:43.048Z,7.78
2022-08-07T11:32:15.427Z,8.05
2022-08-07T11:36:00.188Z,6.30
2022-08-07T11:39:59.441Z,6.57
2022-08-07T11:43:03.159Z,10.57
2022-08-07T11:46:12.397Z,6.88
2022-08-07T11:49:50.427Z,6.13
2022-08-07T11:52:35.648Z,6.05
2022-08-07T11:55:18.869Z,6.82
2022-08-07T11:58:33.168Z,8.55
2022-08-07T12:01:59.158Z,7.40
2022-08-07T12:05:28.704Z,7.78
2022-08-07T12:08:34.642Z,6.85
2022-08-07T12:11:21.553Z,5.95
2022-08-07T12:14:04.028Z,7.00
2022-08-07T12:16:42.759Z,7.78
2022-08-07T12:19:14.655Z,8.68
2022-08-07T12:22:39.608Z,6.40
2022-08-07T12:26:03.021Z,7.70
2022-08-07T12:29:03.739Z,8.23
2022-08-07T12:31:52.905Z,7.28
2022-08-07T12:34:31.752Z,6.55
2022-08-07T12:37:08.739Z,6.43
2022-08-07T12:39:50.736Z,6.32
2022-08-07T12:42:27.905Z,6.85
2022-08-07T12:45:12.194Z,5.82
2022-08-07T12:48:04.353Z,5.93
2022-08-07T12:50:57.529Z,6.55
2022-08-07T12:54:36.477Z,5.35
2022-08-07T12:56:51.231Z,6.60
2022-08-07T12:59:53.890Z,4.80
2022-08-07T13:02:33.031Z,5.30
2022-08-07T13:06:03.282Z,5.78
2022-08-07T13:10:21.366Z,6.22
2022-08-07T13:12:52.343Z,5.00
2022-08-07T13:18:51.060Z,7.57
2022-08-07T13:21:50.077Z,5.20
2022-08-07T13:24:43.924Z,6.65
2022-08-07T13:28:14.012Z,5.93
2022-08-07T13:30:40.439Z,6.15
2022-08-07T13:34:31.596Z,6.47
2022-08-07T13:36:53.524Z,5.80
2022-08-07T13:40:32.751Z,6.93
2022-08-07T13:42:38.874Z,4.57
2022-08-07T13:48:07.758Z,6.10
2022-08-07T13:51:00.498Z,10.73
2022-08-07T13:53:59.414Z,6.15
2022-08-07T13:56:35.942Z,5.47
2022-08-07T13:59:32.022Z,4.57
2022-08-07T14:02:10.757Z,5.65
2022-08-07T14:05:02.453Z,6.95
2022-08-07T14:08:00.194Z,6.55
2022-08-07T14:10:41.998Z,6.45
2022-08-07T14:13:18.707Z,5.07
2022-08-07T14:16:15.412Z,6.32
2022-08-07T14:18:57.469Z,7.22
2022-08-07T14:22:03.247Z,6.57
2022-08-07T14:24:51.371Z,8.52
2022-08-07T14:28:19.892Z,7.38
2022-08-07T14:30:32.568Z,7.32
2022-08-07T14:33:04.437Z,5.95
2022-08-07T14:35:44.867Z,4.88
2022-08-07T14:38:30.966Z,5.03
2022-08-07T14:41:05.285Z,4.15
2022-08-07T14:43:59.383Z,5.90
2022-08-07T14:46:33.336Z,4.65
2022-08-07T14:49:17.621Z,6.82
2022-08-07T14:54:50.022Z,5.03
2022-08-07T14:57:28.867Z,8.48
2022-08-07T15:00:20.861Z,4.95
2022-08-07T15:03:16.718Z,6.05
2022-08-07T15:05:54.202Z,5.15
2022-08-07T15:08:32.289Z,4.95
2022-08-07T15:11:14.945Z,5.65
2022-08-07T15:13:57.677Z,5.50
2022-08-07T15:16:54.524Z,6.28
2022-08-07T15:20:30.177Z,5.10
2022-08-07T15:22:31.117Z,5.13
2022-08-07T15:31:08.205Z,6.75
2022-08-07T15:33:42.730Z,5.47
2022-08-07T15:36:14.487Z,6.72
2022-08-07T15:39:10.565Z,6.95
2022-08-07T15:44:52.524Z,6.78
2022-08-07T15:48:00.162Z,6.57
2022-08-07T15:51:01.584Z,7.10
2022-08-07T15:53:52.417Z,6.35
2022-08-07T15:56:40.638Z,6.57
2022-08-07T15:59:20.261Z,6.68
2022-08-07T16:02:15.205Z,6.97
2022-08-07T16:04:45.302Z,7.30
2022-08-07T16:08:29.240Z,6.60
2022-08-07T16:10:25.311Z,9.43
2022-08-07T16:13:57.757Z,5.47
2022-08-07T16:16:48.372Z,6.32
2022-08-07T16:19:42.464Z,7.20
2022-08-07T16:22:54.835Z,8.13
2022-08-07T16:25:53.062Z,7.95
2022-08-07T16:29:18.103Z,6.25
2022-08-07T16:31:50.003Z,6.95
2022-08-07T16:34:48.378Z,8.90
2022-08-07T16:38:04.365Z,7.15
2022-08-07T16:41:01.592Z,7.53
2022-08-07T16:44:47.325Z,7.00
2022-08-07T16:47:56.540Z,8.63
2022-08-07T16:51:13.519Z,6.03
2022-08-07T16:54:10.760Z,5.35
2022-08-07T16:56:55.643Z,7.90
2022-08-07T16:59:47.891Z,9.07
2022-08-07T17:02:51.142Z,7.13
2022-08-07T17:06:20.007Z,6.05
2022-08-07T17:09:14.336Z,8.43
2022-08-07T17:12:04.842Z,5.80
2022-08-07T17:15:09.189Z,6.25
2022-08-07T17:18:11.529Z,11.23
2022-08-07T17:20:42.173Z,6.30
2022-08-07T17:23:32.410Z,5.68
2022-08-07T17:26:49.852Z,7.18
2022-08-07T17:30:15.858Z,6.13
2022-08-07T17:34:08.791Z,5.75
2022-08-07T17:36:13.727Z,6.18
2022-08-07T17:39:10.720Z,6.88
2022-08-07T17:42:02.775Z,7.10
2022-08-07T17:44:50.371Z,6.30
2022-08-07T17:47:54.053Z,7.60
2022-08-07T17:50:47.005Z,9.82
2022-08-07T17:53:23.943Z,9.68
2022-08-07T17:56:31.689Z,9.75
2022-08-07T17:59:16.986Z,10.27
2022-08-07T18:02:10.911Z,9.38
2022-08-07T18:05:21.212Z,9.55
2022-08-07T18:09:00.684Z,10.07
2022-08-07T18:12:16.166Z,12.05
2022-08-07T18:14:59.958Z,13.25
2022-08-07T18:18:45.426Z,10.02
2022-08-07T18:21:30.673Z,10.88
2022-08-07T18:24:34.423Z,11.05
2022-08-07T18:27:21.223Z,14.77
2022-08-07T18:30:31.672Z,12.75
2022-08-07T18:33:39.010Z,11.38
2022-08-07T18:37:09.624Z,9.82
2022-08-07T18:40:07.445Z,8.68
2022-08-07T18:43:57.761Z,16.85
2022-08-07T18:46:58.305Z,7.63
2022-08-07T18:53:06.125Z,84.18
2022-08-07T18:56:02.169Z,81.68
2022-08-07T18:58:51.028Z,31.08
2022-08-07T19:06:02.674Z,8.80
2022-08-07T19:08:56.355Z,9.35
2022-08-07T19:12:08.045Z,8.07
2022-08-07T19:14:51.080Z,12.32
2022-08-07T19:17:55.698Z,12.25
2022-08-07T19:20:32.710Z,17.00
2022-08-07T19:23:57.310Z,10.05
2022-08-07T19:26:22.999Z,8.23
2022-08-07T19:30:57.375Z,11.23
2022-08-07T19:32:17.705Z,8.00
2022-08-07T19:34:55.455Z,9.77
2022-08-07T19:37:25.411Z,7.85
2022-08-07T19:40:17.070Z,11.63
2022-08-07T19:43:01.081Z,16.05
2022-08-07T19:46:04.896Z,10.05
2022-08-07T19:48:44.423Z,9.13
2022-08-07T19:51:51.202Z,11.40
2022-08-07T19:54:33.607Z,9.27
2022-08-07T19:58:01.163Z,9.43
2022-08-07T20:00:09.028Z,8.70
2022-08-07T20:02:52.121Z,8.10
2022-08-07T20:05:30.954Z,8.35
2022-08-07T20:08:24.984Z,8.85
2022-08-07T20:11:09.639Z,10.43
2022-08-07T20:13:56.521Z,7.90
2022-08-07T20:16:32.354Z,8.43
2022-08-07T20:19:12.009Z,8.20
2022-08-07T20:21:48.131Z,9.90
2022-08-07T20:24:32.478Z,10.50
2022-08-07T20:27:05.064Z,8.15
2022-08-07T20:30:07.356Z,8.48
2022-08-07T20:32:46.793Z,8.65
2022-08-07T20:35:26.469Z,10.18
2022-08-07T20:37:58.964Z,6.38
2022-08-07T20:40:33.861Z,7.85
2022-08-07T20:43:14.399Z,8.48
2022-08-07T20:46:28.203Z,10.88
2022-08-07T20:49:00.782Z,8.98
2022-08-07T20:51:35.793Z,8.27
2022-08-07T20:54:15.315Z,10.27
2022-08-07T20:57:05.805Z,6.93
2022-08-07T21:00:06.868Z,10.75
2022-08-07T21:02:53.951Z,8.10
2022-08-07T21:05:51.298Z,7.63
2022-08-07T21:08:38.031Z,8.40
2022-08-07T21:11:16.884Z,6.97
2022-08-07T21:14:20.087Z,6.78
2022-08-07T21:18:00.939Z,7.78
2022-08-07T21:19:51.574Z,12.55
2022-08-07T21:22:51.367Z,6.43
2022-08-07T21:25:39.084Z,9.93
2022-08-07T21:28:47.591Z,9.38
2022-08-07T21:31:49.987Z,7.40
2022-08-07T21:34:32.884Z,8.93
2022-08-07T21:37:25.955Z,6.97
2022-08-07T21:40:23.378Z,7.68
2022-08-07T21:43:04.592Z,7.93
2022-08-07T21:46:09.853Z,7.40
2022-08-07T21:50:02.633Z,10.35
2022-08-07T21:53:00.126Z,10.48
2022-08-07T21:56:01.487Z,8.23
2022-08-07T21:58:53.117Z,10.40
2022-08-07T22:02:11.478Z,9.98
2022-08-07T22:04:31.563Z,11.27
2022-08-07T22:07:12.921Z,10.23
2022-08-07T22:09:54.213Z,7.88
2022-08-07T22:12:38.668Z,9.90
2022-08-07T22:16:42.141Z,9.05
2022-08-07T22:18:19.676Z,8.77
2022-08-07T22:20:58.543Z,8.60
2022-08-07T22:23:44.975Z,10.55
2022-08-07T22:26:44.215Z,9.07
2022-08-07T22:29:49.478Z,9.02
2022-08-07T22:32:46.228Z,9.55
2022-08-07T22:35:14.273Z,10.70
2022-08-07T22:38:05.373Z,11.35
2022-08-07T22:40:42.422Z,9.85
2022-08-07T22:43:15.997Z,8.52
2022-08-07T22:47:03.104Z,7.47
2022-08-07T22:49:33.640Z,8.32
2022-08-07T22:55:53.821Z,8.40
2022-08-07T22:58:28.174Z,13.60
2022-08-07T23:01:49.602Z,8.32
2022-08-07T23:04:56.854Z,8.07
2022-08-07T23:08:45.824Z,8.10
2022-08-07T23:11:45.792Z,12.23
2022-08-07T23:14:40.763Z,9.23
2022-08-07T23:18:18.027Z,8.63
2022-08-07T23:21:16.210Z,7.13
2022-08-07T23:24:16.752Z,8.65
2022-08-07T23:27:18.637Z,9.32
2022-08-07T23:30:39.545Z,10.55
2022-08-07T23:34:34.603Z,7.82
2022-08-07T23:37:19.096Z,7.45
2022-08-07T23:40:09.762Z,11.52
2022-08-07T23:43:07.625Z,9.25
2022-08-07T23:46:10.693Z,12.90
2022-08-07T23:49:19.360Z,8.50
2022-08-07T23:53:06.384Z,7.32
2022-08-07T23:55:51.909Z,9.20
2022-08-07T23:58:26.205Z,8.88
